ETD392 OMAA-VCBI
Flight info
| Callsign | ETD392 |
|---|---|
| Flight time | N/A |
| Altitude | 33000 |
| Route | KANIP N318 TOLDA P570 EMURU M300 VASTU P895 BIKOK |
| Aircraft | A321/M-SDE3FGHIRWY/LB1 |
Departure
| Time | 2026-05-08 09:06 |
|---|---|
| Airport | Zayed International Airport (OMAA) |
Arrival
| Time | N/A |
|---|---|
| Airport | Bandaranaike International Colombo Airport (VCBI) |
| Time | Latitude | Longitude | Altitude | Speed | Heading |
|---|---|---|---|---|---|
| 2026-05-08 08:34 | 24.44715 | 54.64433 | 92 ft | 0 kts | 252° |
| 2026-05-08 08:50 | 24.44717 | 54.64440 | 92 ft | 2 kts | 252° |
| 2026-05-08 08:51 | 24.44721 | 54.64455 | 92 ft | 1 kts | 252° |
| 2026-05-08 08:51 | 24.44724 | 54.64466 | 92 ft | 2 kts | 249° |
| 2026-05-08 08:51 | 24.44731 | 54.64480 | 92 ft | 2 kts | 235° |
| 2026-05-08 08:51 | 24.44741 | 54.64493 | 92 ft | 2 kts | 224° |
| 2026-05-08 08:52 | 24.44752 | 54.64504 | 92 ft | 2 kts | 213° |
| 2026-05-08 08:52 | 24.44766 | 54.64512 | 92 ft | 2 kts | 202° |
| 2026-05-08 08:52 | 24.44780 | 54.64517 | 92 ft | 2 kts | 191° |
| 2026-05-08 08:52 | 24.44795 | 54.64519 | 92 ft | 2 kts | 180° |
| 2026-05-08 08:53 | 24.44810 | 54.64518 | 92 ft | 2 kts | 169° |
| 2026-05-08 08:53 | 24.44819 | 54.64515 | 92 ft | 1 kts | 162° |
| 2026-05-08 08:53 | 24.44823 | 54.64514 | 92 ft | 0 kts | 162° |
| 2026-05-08 08:55 | 24.44821 | 54.64514 | 92 ft | 0 kts | 162° |
| 2026-05-08 08:55 | 24.44787 | 54.64527 | 92 ft | 7 kts | 162° |
| 2026-05-08 08:55 | 24.44742 | 54.64547 | 92 ft | 7 kts | 153° |
| 2026-05-08 08:55 | 24.44700 | 54.64577 | 92 ft | 7 kts | 143° |
| 2026-05-08 08:56 | 24.44662 | 54.64613 | 92 ft | 7 kts | 135° |
| 2026-05-08 08:56 | 24.44628 | 54.64654 | 92 ft | 7 kts | 129° |
| 2026-05-08 08:56 | 24.44596 | 54.64700 | 92 ft | 7 kts | 129° |
| 2026-05-08 08:56 | 24.44550 | 54.64719 | 92 ft | 7 kts | 191° |
| 2026-05-08 08:57 | 24.44504 | 54.64690 | 92 ft | 7 kts | 217° |
| 2026-05-08 08:57 | 24.44458 | 54.64652 | 92 ft | 11 kts | 218° |
| 2026-05-08 08:57 | 24.44375 | 54.64581 | 92 ft | 15 kts | 217° |
| 2026-05-08 08:57 | 24.44290 | 54.64512 | 92 ft | 14 kts | 215° |
| 2026-05-08 08:58 | 24.44206 | 54.64541 | 92 ft | 14 kts | 128° |
| 2026-05-08 08:58 | 24.44147 | 54.64625 | 91 ft | 13 kts | 128° |
| 2026-05-08 08:58 | 24.44089 | 54.64707 | 91 ft | 13 kts | 128° |
| 2026-05-08 08:58 | 24.44023 | 54.64773 | 92 ft | 12 kts | 170° |
| 2026-05-08 08:59 | 24.43944 | 54.64735 | 92 ft | 12 kts | 217° |
| 2026-05-08 08:59 | 24.43874 | 54.64681 | 92 ft | 12 kts | 199° |
| 2026-05-08 08:59 | 24.43807 | 54.64722 | 92 ft | 11 kts | 129° |
| 2026-05-08 08:59 | 24.43744 | 54.64809 | 92 ft | 18 kts | 128° |
| 2026-05-08 09:00 | 24.43647 | 54.64945 | 92 ft | 23 kts | 128° |
| 2026-05-08 09:00 | 24.43551 | 54.65081 | 92 ft | 21 kts | 128° |
| 2026-05-08 09:00 | 24.43462 | 54.65207 | 92 ft | 20 kts | 128° |
| 2026-05-08 09:00 | 24.43376 | 54.65328 | 92 ft | 19 kts | 127° |
| 2026-05-08 09:01 | 24.43298 | 54.65439 | 92 ft | 18 kts | 128° |
| 2026-05-08 09:01 | 24.43220 | 54.65547 | 92 ft | 17 kts | 128° |
| 2026-05-08 09:01 | 24.43148 | 54.65647 | 92 ft | 16 kts | 127° |
| 2026-05-08 09:01 | 24.43081 | 54.65745 | 91 ft | 15 kts | 128° |
| 2026-05-08 09:02 | 24.43015 | 54.65837 | 92 ft | 15 kts | 128° |
| 2026-05-08 09:02 | 24.42952 | 54.65926 | 92 ft | 14 kts | 128° |
| 2026-05-08 09:02 | 24.42891 | 54.66013 | 92 ft | 14 kts | 128° |
| 2026-05-08 09:02 | 24.42826 | 54.66106 | 92 ft | 17 kts | 128° |
| 2026-05-08 09:03 | 24.42751 | 54.66210 | 92 ft | 17 kts | 128° |
| 2026-05-08 09:03 | 24.42679 | 54.66309 | 92 ft | 16 kts | 128° |
| 2026-05-08 09:03 | 24.42611 | 54.66404 | 92 ft | 15 kts | 128° |
| 2026-05-08 09:03 | 24.42545 | 54.66496 | 92 ft | 15 kts | 128° |
| 2026-05-08 09:04 | 24.42481 | 54.66584 | 92 ft | 14 kts | 129° |
| 2026-05-08 09:04 | 24.42419 | 54.66669 | 92 ft | 14 kts | 129° |
| 2026-05-08 09:04 | 24.42339 | 54.66698 | 92 ft | 13 kts | 213° |
| 2026-05-08 09:04 | 24.42267 | 54.66636 | 92 ft | 12 kts | 226° |
| 2026-05-08 09:05 | 24.42274 | 54.66571 | 92 ft | 0 kts | 309° |
| 2026-05-08 09:05 | 24.42288 | 54.66551 | 92 ft | 14 kts | 308° |
| 2026-05-08 09:05 | 24.42507 | 54.66242 | 92 ft | 87 kts | 308° |
| 2026-05-08 09:05 | 24.43021 | 54.65516 | 92 ft | 150 kts | 307° |
| 2026-05-08 09:06 | 24.43725 | 54.64478 | 345 ft | 178 kts | 306° |
| 2026-05-08 09:06 | 24.44467 | 54.63443 | 1140 ft | 170 kts | 307° |
| 2026-05-08 09:06 | 24.45172 | 54.62474 | 1920 ft | 159 kts | 308° |
| 2026-05-08 09:06 | 24.45862 | 54.61512 | 2157 ft | 163 kts | 307° |
| 2026-05-08 09:07 | 24.46584 | 54.60503 | 2325 ft | 171 kts | 307° |
| 2026-05-08 09:07 | 24.47329 | 54.59453 | 2487 ft | 181 kts | 307° |
| 2026-05-08 09:07 | 24.48131 | 54.58328 | 2686 ft | 190 kts | 307° |
| 2026-05-08 09:07 | 24.48962 | 54.57156 | 2889 ft | 200 kts | 307° |
| 2026-05-08 09:08 | 24.49840 | 54.55916 | 3097 ft | 210 kts | 307° |
| 2026-05-08 09:08 | 24.50769 | 54.54606 | 3311 ft | 221 kts | 307° |
| 2026-05-08 09:08 | 24.51749 | 54.53224 | 3470 ft | 236 kts | 309° |
| 2026-05-08 09:08 | 24.53068 | 54.52077 | 3638 ft | 252 kts | 341° |
| 2026-05-08 09:09 | 24.54843 | 54.51986 | 3850 ft | 267 kts | 17° |
| 2026-05-08 09:09 | 24.56428 | 54.53110 | 4110 ft | 280 kts | 52° |
| 2026-05-08 09:09 | 24.57187 | 54.55083 | 4529 ft | 286 kts | 85° |
| 2026-05-08 09:09 | 24.57108 | 54.57254 | 5089 ft | 285 kts | 97° |
| 2026-05-08 09:10 | 24.56836 | 54.59445 | 5565 ft | 289 kts | 98° |
| 2026-05-08 09:10 | 24.56590 | 54.61658 | 6032 ft | 292 kts | 96° |
| 2026-05-08 09:10 | 24.56399 | 54.63869 | 6513 ft | 294 kts | 94° |
| 2026-05-08 09:10 | 24.56248 | 54.66125 | 7012 ft | 296 kts | 94° |
| 2026-05-08 09:11 | 24.56120 | 54.68382 | 7496 ft | 298 kts | 93° |
| 2026-05-08 09:11 | 24.56001 | 54.70672 | 7978 ft | 300 kts | 93° |
| 2026-05-08 09:11 | 24.55886 | 54.72986 | 8454 ft | 302 kts | 93° |
| 2026-05-08 09:11 | 24.55771 | 54.75291 | 8932 ft | 304 kts | 93° |
| 2026-05-08 09:12 | 24.55653 | 54.77619 | 9384 ft | 306 kts | 93° |
| 2026-05-08 09:12 | 24.55513 | 54.79930 | 9893 ft | 305 kts | 98° |
| 2026-05-08 09:12 | 24.54880 | 54.82144 | 10335 ft | 306 kts | 120° |
| 2026-05-08 09:12 | 24.53532 | 54.84037 | 10538 ft | 315 kts | 136° |
| 2026-05-08 09:13 | 24.51925 | 54.85725 | 10743 ft | 325 kts | 138° |
| 2026-05-08 09:13 | 24.50216 | 54.87466 | 10942 ft | 336 kts | 138° |
| 2026-05-08 09:13 | 24.48486 | 54.89242 | 11132 ft | 346 kts | 137° |
| 2026-05-08 09:13 | 24.46691 | 54.91107 | 11318 ft | 356 kts | 137° |
| 2026-05-08 09:14 | 24.44876 | 54.93006 | 11499 ft | 365 kts | 137° |
| 2026-05-08 09:14 | 24.43040 | 54.94935 | 11789 ft | 370 kts | 136° |
| 2026-05-08 09:14 | 24.41159 | 54.96914 | 12257 ft | 370 kts | 136° |
| 2026-05-08 09:14 | 24.39327 | 54.98842 | 12696 ft | 371 kts | 136° |
| 2026-05-08 09:15 | 24.37436 | 55.00832 | 13066 ft | 373 kts | 136° |
| 2026-05-08 09:15 | 24.35558 | 55.02807 | 13444 ft | 376 kts | 137° |
| 2026-05-08 09:15 | 24.33714 | 55.04842 | 13846 ft | 377 kts | 133° |
| 2026-05-08 09:15 | 24.32057 | 55.07065 | 14222 ft | 380 kts | 127° |
| 2026-05-08 09:16 | 24.30605 | 55.09498 | 14592 ft | 382 kts | 121° |
| 2026-05-08 09:16 | 24.29277 | 55.12050 | 14968 ft | 384 kts | 120° |
| 2026-05-08 09:16 | 24.27970 | 55.14623 | 15333 ft | 386 kts | 120° |
| 2026-05-08 09:16 | 24.26660 | 55.17205 | 15707 ft | 388 kts | 120° |
| 2026-05-08 09:17 | 24.25347 | 55.19777 | 16078 ft | 389 kts | 120° |
| 2026-05-08 09:17 | 24.24011 | 55.22384 | 16432 ft | 391 kts | 120° |
| 2026-05-08 09:17 | 24.22677 | 55.24984 | 16779 ft | 393 kts | 120° |
| 2026-05-08 09:17 | 24.21327 | 55.27608 | 17127 ft | 395 kts | 120° |
| 2026-05-08 09:18 | 24.19976 | 55.30233 | 17468 ft | 397 kts | 120° |
| 2026-05-08 09:18 | 24.18621 | 55.32896 | 17806 ft | 399 kts | 119° |
| 2026-05-08 09:18 | 24.17376 | 55.35630 | 18139 ft | 402 kts | 116° |
| 2026-05-08 09:18 | 24.16271 | 55.38405 | 18458 ft | 404 kts | 114° |
| 2026-05-08 09:19 | 24.15179 | 55.41250 | 18762 ft | 406 kts | 114° |
| 2026-05-08 09:19 | 24.14079 | 55.44120 | 19066 ft | 409 kts | 114° |
| 2026-05-08 09:19 | 24.12966 | 55.47022 | 19363 ft | 411 kts | 114° |
| 2026-05-08 09:19 | 24.11865 | 55.49887 | 19658 ft | 413 kts | 114° |
| 2026-05-08 09:20 | 24.10737 | 55.52816 | 19947 ft | 416 kts | 114° |
| 2026-05-08 09:20 | 24.09616 | 55.55721 | 20232 ft | 418 kts | 114° |
| 2026-05-08 09:20 | 24.08483 | 55.58657 | 20512 ft | 420 kts | 114° |
| 2026-05-08 09:20 | 24.07340 | 55.61616 | 20790 ft | 423 kts | 114° |
| 2026-05-08 09:21 | 24.06139 | 55.64594 | 21059 ft | 425 kts | 116° |
| 2026-05-08 09:21 | 24.04814 | 55.67492 | 21333 ft | 427 kts | 118° |
| 2026-05-08 09:22 | 23.96476 | 55.85006 | 22866 ft | 440 kts | 118° |
| 2026-05-08 09:23 | 23.95042 | 55.88005 | 23112 ft | 442 kts | 118° |
| 2026-05-08 09:23 | 23.93621 | 55.90978 | 23352 ft | 444 kts | 118° |
| 2026-05-08 09:23 | 23.92190 | 55.93967 | 23591 ft | 446 kts | 118° |
| 2026-05-08 09:23 | 23.90748 | 55.96978 | 23827 ft | 448 kts | 118° |
| 2026-05-08 09:24 | 23.89302 | 55.99991 | 24070 ft | 450 kts | 118° |
| 2026-05-08 09:24 | 23.87818 | 56.03059 | 24332 ft | 452 kts | 119° |
| 2026-05-08 09:24 | 23.86350 | 56.06103 | 24601 ft | 454 kts | 119° |
| 2026-05-08 09:24 | 23.84885 | 56.09143 | 24867 ft | 455 kts | 119° |
| 2026-05-08 09:25 | 23.83419 | 56.12194 | 25135 ft | 456 kts | 119° |
| 2026-05-08 09:25 | 23.81926 | 56.15297 | 25392 ft | 457 kts | 119° |
| 2026-05-08 09:25 | 23.80441 | 56.18386 | 25633 ft | 459 kts | 119° |
| 2026-05-08 09:25 | 23.78950 | 56.21487 | 25861 ft | 460 kts | 119° |
| 2026-05-08 09:26 | 23.77463 | 56.24577 | 26083 ft | 462 kts | 119° |
| 2026-05-08 09:26 | 23.75968 | 56.27684 | 26301 ft | 463 kts | 119° |
| 2026-05-08 09:26 | 23.74455 | 56.30822 | 26523 ft | 465 kts | 119° |
| 2026-05-08 09:26 | 23.72942 | 56.33961 | 26739 ft | 466 kts | 119° |
| 2026-05-08 09:27 | 23.71392 | 56.37175 | 26973 ft | 467 kts | 119° |
| 2026-05-08 09:27 | 23.69869 | 56.40332 | 27267 ft | 466 kts | 119° |
| 2026-05-08 09:27 | 23.68357 | 56.43464 | 27578 ft | 465 kts | 119° |
| 2026-05-08 09:27 | 23.66869 | 56.46543 | 27863 ft | 464 kts | 119° |
| 2026-05-08 09:28 | 23.65358 | 56.49667 | 28138 ft | 464 kts | 120° |
| 2026-05-08 09:28 | 23.63855 | 56.52774 | 28403 ft | 463 kts | 120° |
| 2026-05-08 09:28 | 23.62351 | 56.55880 | 28671 ft | 463 kts | 120° |
| 2026-05-08 09:28 | 23.60843 | 56.58992 | 28939 ft | 462 kts | 120° |
| 2026-05-08 09:29 | 23.59348 | 56.62078 | 29188 ft | 462 kts | 120° |
| 2026-05-08 09:29 | 23.57837 | 56.65190 | 29441 ft | 461 kts | 120° |
| 2026-05-08 09:29 | 23.56338 | 56.68290 | 29690 ft | 460 kts | 120° |
| 2026-05-08 09:29 | 23.54816 | 56.71441 | 29936 ft | 460 kts | 120° |
| 2026-05-08 09:30 | 23.53296 | 56.74582 | 30177 ft | 459 kts | 120° |
| 2026-05-08 09:30 | 23.51804 | 56.77655 | 30410 ft | 458 kts | 120° |
| 2026-05-08 09:30 | 23.50329 | 56.80690 | 30627 ft | 458 kts | 120° |
| 2026-05-08 09:30 | 23.48823 | 56.83784 | 30842 ft | 458 kts | 120° |
| 2026-05-08 09:31 | 23.47337 | 56.86832 | 31042 ft | 457 kts | 120° |
| 2026-05-08 09:31 | 23.45843 | 56.89896 | 31212 ft | 458 kts | 120° |
| 2026-05-08 09:31 | 23.44338 | 56.92978 | 31363 ft | 459 kts | 120° |
| 2026-05-08 09:31 | 23.42856 | 56.96011 | 31518 ft | 459 kts | 120° |
| 2026-05-08 09:32 | 23.41346 | 56.99102 | 31672 ft | 460 kts | 120° |
| 2026-05-08 09:32 | 23.39833 | 57.02198 | 31824 ft | 461 kts | 120° |
| 2026-05-08 09:32 | 23.38340 | 57.05250 | 31973 ft | 461 kts | 120° |
| 2026-05-08 09:32 | 23.36840 | 57.08365 | 32119 ft | 462 kts | 119° |
| 2026-05-08 09:33 | 23.35414 | 57.11489 | 32258 ft | 463 kts | 118° |
| 2026-05-08 09:33 | 23.34003 | 57.14631 | 32393 ft | 463 kts | 118° |
| 2026-05-08 09:33 | 23.32589 | 57.17782 | 32529 ft | 464 kts | 118° |
| 2026-05-08 09:33 | 23.31155 | 57.20970 | 32663 ft | 465 kts | 118° |
| 2026-05-08 09:34 | 23.29734 | 57.24117 | 32741 ft | 466 kts | 118° |
| 2026-05-08 09:34 | 23.26863 | 57.30446 | 32750 ft | 466 kts | 118° |
| 2026-05-08 09:35 | 23.23994 | 57.36761 | 32753 ft | 466 kts | 118° |
| 2026-05-08 09:35 | 23.21108 | 57.43101 | 32754 ft | 466 kts | 118° |
| 2026-05-08 09:36 | 23.18240 | 57.49390 | 32754 ft | 466 kts | 118° |
| 2026-05-08 09:36 | 23.15351 | 57.55721 | 32754 ft | 466 kts | 118° |
| 2026-05-08 09:37 | 23.12472 | 57.62022 | 32754 ft | 466 kts | 118° |
| 2026-05-08 09:37 | 23.09595 | 57.68318 | 32753 ft | 466 kts | 118° |
| 2026-05-08 09:38 | 23.06722 | 57.74611 | 32754 ft | 465 kts | 118° |
| 2026-05-08 09:38 | 23.03825 | 57.80927 | 32754 ft | 465 kts | 118° |
| 2026-05-08 09:39 | 23.00942 | 57.87202 | 32754 ft | 465 kts | 118° |
| 2026-05-08 09:39 | 22.98047 | 57.93501 | 32754 ft | 465 kts | 118° |
| 2026-05-08 09:40 | 22.95169 | 57.99750 | 32754 ft | 465 kts | 118° |
| 2026-05-08 09:40 | 22.92262 | 58.06045 | 32754 ft | 465 kts | 118° |
| 2026-05-08 09:41 | 22.89355 | 58.12331 | 32754 ft | 465 kts | 118° |
| 2026-05-08 09:41 | 22.86438 | 58.18579 | 32754 ft | 465 kts | 118° |
| 2026-05-08 09:42 | 22.83538 | 58.24807 | 32754 ft | 464 kts | 118° |
| 2026-05-08 09:42 | 22.81120 | 58.30017 | 32754 ft | 464 kts | 118° |
| 2026-05-08 09:43 | 22.77736 | 58.37310 | 32754 ft | 464 kts | 118° |
| 2026-05-08 09:43 | 22.74828 | 58.43573 | 32753 ft | 464 kts | 118° |
| 2026-05-08 09:44 | 22.71915 | 58.49833 | 32753 ft | 464 kts | 118° |
| 2026-05-08 09:44 | 22.68622 | 58.55820 | 32752 ft | 462 kts | 127° |
| 2026-05-08 09:45 | 22.64426 | 58.61091 | 32751 ft | 460 kts | 137° |
| 2026-05-08 09:45 | 22.59501 | 58.65440 | 32751 ft | 458 kts | 147° |
| 2026-05-08 09:46 | 22.54095 | 58.69107 | 32754 ft | 458 kts | 150° |
| 2026-05-08 09:46 | 22.48681 | 58.72666 | 32754 ft | 458 kts | 150° |
| 2026-05-08 09:47 | 22.43212 | 58.76262 | 32754 ft | 458 kts | 150° |
| 2026-05-08 09:47 | 22.37789 | 58.79831 | 32754 ft | 458 kts | 150° |
| 2026-05-08 09:48 | 22.32342 | 58.83413 | 32754 ft | 458 kts | 150° |
| 2026-05-08 09:48 | 22.27038 | 58.87227 | 32755 ft | 459 kts | 144° |
| 2026-05-08 09:49 | 22.22128 | 58.91634 | 32759 ft | 460 kts | 138° |
| 2026-05-08 09:49 | 22.17689 | 58.96589 | 32764 ft | 461 kts | 132° |
| 2026-05-08 09:50 | 22.13555 | 59.01932 | 32772 ft | 461 kts | 131° |
| 2026-05-08 09:50 | 22.09460 | 59.07254 | 32776 ft | 461 kts | 131° |
| 2026-05-08 09:51 | 22.05376 | 59.12545 | 32778 ft | 461 kts | 131° |
| 2026-05-08 09:51 | 22.01267 | 59.17860 | 32779 ft | 461 kts | 131° |
| 2026-05-08 09:52 | 21.97131 | 59.23199 | 32779 ft | 460 kts | 131° |
| 2026-05-08 09:52 | 21.93029 | 59.28493 | 32779 ft | 460 kts | 131° |
| 2026-05-08 09:53 | 21.88925 | 59.33779 | 32779 ft | 460 kts | 131° |
| 2026-05-08 09:53 | 21.84811 | 59.39038 | 32778 ft | 460 kts | 131° |
| 2026-05-08 09:54 | 21.80675 | 59.44339 | 32778 ft | 460 kts | 131° |
| 2026-05-08 09:54 | 21.76563 | 59.49619 | 32778 ft | 460 kts | 131° |
| 2026-05-08 09:55 | 21.72451 | 59.54898 | 32778 ft | 460 kts | 131° |
| 2026-05-08 09:55 | 21.68355 | 59.60154 | 32778 ft | 460 kts | 130° |
| 2026-05-08 09:56 | 21.64233 | 59.65440 | 32778 ft | 460 kts | 131° |
| 2026-05-08 09:56 | 21.60111 | 59.70749 | 32778 ft | 460 kts | 131° |
| 2026-05-08 09:57 | 21.53933 | 59.78654 | 32782 ft | 460 kts | 131° |
| 2026-05-08 09:57 | 21.49808 | 59.83894 | 32787 ft | 460 kts | 131° |
| 2026-05-08 09:58 | 21.45679 | 59.89132 | 32790 ft | 460 kts | 131° |
| 2026-05-08 09:58 | 21.41536 | 59.94385 | 32790 ft | 460 kts | 131° |
| 2026-05-08 09:59 | 21.37388 | 59.99641 | 32788 ft | 460 kts | 131° |
| 2026-05-08 09:59 | 21.33231 | 60.04901 | 32783 ft | 461 kts | 131° |
| 2026-05-08 10:00 | 21.29061 | 60.10176 | 32781 ft | 461 kts | 131° |
| 2026-05-08 10:00 | 21.24926 | 60.15400 | 32780 ft | 461 kts | 131° |
| 2026-05-08 10:01 | 21.20787 | 60.20634 | 32780 ft | 461 kts | 131° |
| 2026-05-08 10:01 | 21.16630 | 60.25897 | 32780 ft | 461 kts | 131° |
| 2026-05-08 10:02 | 21.13174 | 60.30267 | 32780 ft | 461 kts | 131° |
| 2026-05-08 10:02 | 21.08334 | 60.36382 | 32781 ft | 461 kts | 131° |
| 2026-05-08 10:03 | 21.04205 | 60.41591 | 32785 ft | 460 kts | 131° |
| 2026-05-08 10:03 | 21.00046 | 60.46833 | 32790 ft | 460 kts | 131° |
| 2026-05-08 10:04 | 20.95897 | 60.52060 | 32797 ft | 460 kts | 131° |
| 2026-05-08 10:04 | 20.91759 | 60.57267 | 32803 ft | 460 kts | 131° |
| 2026-05-08 10:05 | 20.87580 | 60.62506 | 32806 ft | 460 kts | 131° |
| 2026-05-08 10:05 | 20.84485 | 60.66367 | 32806 ft | 460 kts | 131° |
| 2026-05-08 10:06 | 20.81949 | 60.69557 | 32807 ft | 460 kts | 131° |
| 2026-05-08 10:07 | 20.77795 | 60.74786 | 32807 ft | 460 kts | 131° |
| 2026-05-08 10:07 | 20.73659 | 60.79976 | 32807 ft | 460 kts | 131° |
| 2026-05-08 10:08 | 20.69484 | 60.85206 | 32807 ft | 460 kts | 131° |
| 2026-05-08 10:08 | 20.65320 | 60.90416 | 32807 ft | 460 kts | 131° |
| 2026-05-08 10:09 | 20.61284 | 60.95795 | 32807 ft | 461 kts | 126° |
| 2026-05-08 10:09 | 20.57746 | 61.01510 | 32807 ft | 461 kts | 123° |
| 2026-05-08 10:10 | 20.54284 | 61.07321 | 32784 ft | 461 kts | 123° |
| 2026-05-08 10:10 | 20.50829 | 61.13112 | 32765 ft | 462 kts | 123° |
| 2026-05-08 10:11 | 20.47351 | 61.18931 | 32757 ft | 462 kts | 123° |
| 2026-05-08 10:11 | 20.43896 | 61.24703 | 32754 ft | 462 kts | 123° |
| 2026-05-08 10:12 | 20.40428 | 61.30489 | 32754 ft | 462 kts | 123° |
| 2026-05-08 10:12 | 20.36959 | 61.36269 | 32754 ft | 462 kts | 123° |
| 2026-05-08 10:13 | 20.33490 | 61.42047 | 32754 ft | 462 kts | 123° |
| 2026-05-08 10:13 | 20.30024 | 61.47813 | 32754 ft | 462 kts | 123° |
| 2026-05-08 10:14 | 20.26555 | 61.53578 | 32754 ft | 462 kts | 123° |
| 2026-05-08 10:14 | 20.23104 | 61.59308 | 32754 ft | 462 kts | 123° |
| 2026-05-08 10:15 | 20.19639 | 61.65054 | 32754 ft | 462 kts | 123° |
| 2026-05-08 10:15 | 20.16160 | 61.70843 | 32754 ft | 462 kts | 123° |
| 2026-05-08 10:16 | 20.12696 | 61.76599 | 32754 ft | 462 kts | 123° |
| 2026-05-08 10:16 | 20.09226 | 61.82346 | 32754 ft | 462 kts | 123° |
| 2026-05-08 10:17 | 20.05733 | 61.88118 | 32754 ft | 462 kts | 123° |
| 2026-05-08 10:17 | 20.02248 | 61.93871 | 32754 ft | 462 kts | 123° |
| 2026-05-08 10:18 | 19.98777 | 61.99594 | 32755 ft | 462 kts | 123° |
| 2026-05-08 10:18 | 19.95275 | 62.05363 | 32760 ft | 462 kts | 123° |
| 2026-05-08 10:19 | 19.91791 | 62.11096 | 32765 ft | 462 kts | 123° |
| 2026-05-08 10:20 | 19.86540 | 62.19686 | 32771 ft | 462 kts | 123° |
| 2026-05-08 10:20 | 19.83024 | 62.25422 | 32762 ft | 462 kts | 123° |
| 2026-05-08 10:21 | 19.79543 | 62.31117 | 32759 ft | 462 kts | 123° |
| 2026-05-08 10:21 | 19.76029 | 62.36870 | 32765 ft | 462 kts | 123° |
| 2026-05-08 10:22 | 19.72537 | 62.42585 | 32775 ft | 462 kts | 123° |
| 2026-05-08 10:22 | 19.69033 | 62.48313 | 32786 ft | 462 kts | 123° |
| 2026-05-08 10:23 | 19.65538 | 62.54023 | 32797 ft | 462 kts | 123° |
| 2026-05-08 10:23 | 19.62028 | 62.59753 | 32804 ft | 461 kts | 123° |
| 2026-05-08 10:24 | 19.58523 | 62.65469 | 32806 ft | 461 kts | 123° |
| 2026-05-08 10:24 | 19.55049 | 62.71156 | 32806 ft | 461 kts | 123° |
| 2026-05-08 10:25 | 19.51555 | 62.76863 | 32807 ft | 462 kts | 123° |
| 2026-05-08 10:25 | 19.48029 | 62.82603 | 32807 ft | 462 kts | 123° |
| 2026-05-08 10:26 | 19.44518 | 62.88308 | 32807 ft | 462 kts | 123° |
| 2026-05-08 10:26 | 19.41020 | 62.93988 | 32807 ft | 462 kts | 123° |
| 2026-05-08 10:27 | 19.37495 | 62.99703 | 32807 ft | 462 kts | 123° |
| 2026-05-08 10:27 | 19.33983 | 63.05393 | 32807 ft | 461 kts | 123° |
| 2026-05-08 10:28 | 19.30470 | 63.11078 | 32807 ft | 461 kts | 123° |
| 2026-05-08 10:28 | 19.26975 | 63.16730 | 32807 ft | 461 kts | 123° |
| 2026-05-08 10:29 | 19.23438 | 63.22444 | 32807 ft | 461 kts | 123° |
| 2026-05-08 10:29 | 19.19921 | 63.28119 | 32807 ft | 462 kts | 123° |
| 2026-05-08 10:30 | 19.16392 | 63.33809 | 32807 ft | 462 kts | 123° |
| 2026-05-08 10:30 | 19.12866 | 63.39491 | 32807 ft | 462 kts | 123° |
| 2026-05-08 10:31 | 19.09342 | 63.45164 | 32807 ft | 462 kts | 123° |
| 2026-05-08 10:31 | 19.05798 | 63.50864 | 32807 ft | 462 kts | 123° |
| 2026-05-08 10:32 | 19.02268 | 63.56536 | 32807 ft | 461 kts | 123° |
| 2026-05-08 10:32 | 18.98744 | 63.62193 | 32807 ft | 461 kts | 123° |
| 2026-05-08 10:33 | 18.95203 | 63.67880 | 32807 ft | 461 kts | 123° |
| 2026-05-08 10:33 | 18.91695 | 63.73531 | 32807 ft | 461 kts | 123° |
| 2026-05-08 10:34 | 18.88156 | 63.79196 | 32807 ft | 461 kts | 123° |
| 2026-05-08 10:34 | 18.84600 | 63.84845 | 32807 ft | 461 kts | 123° |
| 2026-05-08 10:35 | 18.81076 | 63.90459 | 32806 ft | 461 kts | 123° |
| 2026-05-08 10:35 | 18.77530 | 63.96115 | 32802 ft | 461 kts | 123° |
| 2026-05-08 10:36 | 18.73998 | 64.01749 | 32796 ft | 461 kts | 123° |
| 2026-05-08 10:36 | 18.70436 | 64.07428 | 32791 ft | 461 kts | 123° |
| 2026-05-08 10:37 | 18.66908 | 64.13048 | 32787 ft | 462 kts | 123° |
| 2026-05-08 10:37 | 18.63359 | 64.18697 | 32788 ft | 462 kts | 123° |
| 2026-05-08 10:38 | 18.59806 | 64.24346 | 32793 ft | 461 kts | 123° |
| 2026-05-08 10:38 | 18.56237 | 64.30018 | 32798 ft | 461 kts | 123° |
| 2026-05-08 10:39 | 18.52706 | 64.35622 | 32803 ft | 461 kts | 123° |
| 2026-05-08 10:39 | 18.49143 | 64.41273 | 32806 ft | 460 kts | 123° |
| 2026-05-08 10:40 | 18.45608 | 64.46874 | 32807 ft | 460 kts | 123° |
| 2026-05-08 10:40 | 18.42064 | 64.52484 | 32806 ft | 461 kts | 123° |
| 2026-05-08 10:41 | 18.38487 | 64.58143 | 32807 ft | 461 kts | 123° |
| 2026-05-08 10:41 | 18.34936 | 64.63755 | 32807 ft | 461 kts | 123° |
| 2026-05-08 10:42 | 18.31375 | 64.69395 | 32807 ft | 461 kts | 123° |
| 2026-05-08 10:42 | 18.27833 | 64.75008 | 32807 ft | 461 kts | 123° |
| 2026-05-08 10:43 | 18.24255 | 64.80658 | 32807 ft | 461 kts | 123° |
| 2026-05-08 10:43 | 18.20687 | 64.86278 | 32806 ft | 462 kts | 123° |
| 2026-05-08 10:44 | 18.17128 | 64.91880 | 32802 ft | 462 kts | 123° |
| 2026-05-08 10:44 | 18.13553 | 64.97501 | 32797 ft | 462 kts | 123° |
| 2026-05-08 10:45 | 18.09952 | 65.03157 | 32791 ft | 463 kts | 123° |
| 2026-05-08 10:45 | 18.06387 | 65.08751 | 32785 ft | 463 kts | 123° |
| 2026-05-08 10:46 | 18.02781 | 65.14405 | 32784 ft | 463 kts | 123° |
| 2026-05-08 10:46 | 17.99207 | 65.20004 | 32789 ft | 463 kts | 123° |
| 2026-05-08 10:47 | 17.95602 | 65.25648 | 32792 ft | 463 kts | 123° |
| 2026-05-08 10:47 | 17.92017 | 65.31255 | 32798 ft | 463 kts | 123° |
| 2026-05-08 10:48 | 17.88431 | 65.36847 | 32803 ft | 463 kts | 123° |
| 2026-05-08 10:48 | 17.84806 | 65.42461 | 32805 ft | 463 kts | 123° |
| 2026-05-08 10:49 | 17.81214 | 65.48047 | 32806 ft | 463 kts | 123° |
| 2026-05-08 10:49 | 17.77620 | 65.53647 | 32807 ft | 463 kts | 123° |
| 2026-05-08 10:50 | 17.74011 | 65.59269 | 32807 ft | 463 kts | 123° |
| 2026-05-08 10:50 | 17.70409 | 65.64879 | 32807 ft | 463 kts | 123° |
| 2026-05-08 10:51 | 17.66800 | 65.70521 | 32807 ft | 463 kts | 123° |
| 2026-05-08 10:51 | 17.63199 | 65.76133 | 32807 ft | 463 kts | 123° |
| 2026-05-08 10:52 | 17.59651 | 65.81732 | 32807 ft | 463 kts | 122° |
| 2026-05-08 10:52 | 17.56165 | 65.87400 | 32807 ft | 463 kts | 122° |
| 2026-05-08 10:53 | 17.52662 | 65.93095 | 32807 ft | 463 kts | 122° |
| 2026-05-08 10:53 | 17.49159 | 65.98776 | 32807 ft | 463 kts | 122° |
| 2026-05-08 10:54 | 17.45658 | 66.04444 | 32806 ft | 464 kts | 122° |
| 2026-05-08 10:54 | 17.42152 | 66.10113 | 32807 ft | 464 kts | 122° |
| 2026-05-08 10:55 | 17.38630 | 66.15805 | 32807 ft | 464 kts | 122° |
| 2026-05-08 10:55 | 17.35116 | 66.21478 | 32807 ft | 464 kts | 122° |
| 2026-05-08 10:56 | 17.31607 | 66.27138 | 32807 ft | 464 kts | 122° |
| 2026-05-08 10:56 | 17.28084 | 66.32815 | 32807 ft | 464 kts | 122° |
| 2026-05-08 10:57 | 17.24564 | 66.38483 | 32807 ft | 464 kts | 122° |
| 2026-05-08 10:57 | 17.19306 | 66.46941 | 32807 ft | 464 kts | 122° |
| 2026-05-08 10:58 | 17.15764 | 66.52633 | 32807 ft | 464 kts | 122° |
| 2026-05-08 10:58 | 17.12251 | 66.58274 | 32807 ft | 464 kts | 122° |
| 2026-05-08 10:59 | 17.08741 | 66.63905 | 32807 ft | 464 kts | 122° |
| 2026-05-08 10:59 | 17.05221 | 66.69566 | 32807 ft | 464 kts | 123° |
| 2026-05-08 11:00 | 17.01705 | 66.75221 | 32807 ft | 464 kts | 123° |
| 2026-05-08 11:00 | 16.98190 | 66.80856 | 32807 ft | 464 kts | 123° |
| 2026-05-08 11:01 | 16.94658 | 66.86507 | 32807 ft | 464 kts | 123° |
| 2026-05-08 11:01 | 16.91121 | 66.92158 | 32807 ft | 464 kts | 123° |
| 2026-05-08 11:02 | 16.85802 | 67.00601 | 32807 ft | 464 kts | 123° |
| 2026-05-08 11:03 | 16.82255 | 67.06229 | 32807 ft | 464 kts | 123° |
| 2026-05-08 11:03 | 16.78700 | 67.11882 | 32807 ft | 464 kts | 123° |
| 2026-05-08 11:04 | 16.75166 | 67.17505 | 32806 ft | 464 kts | 123° |
| 2026-05-08 11:04 | 16.71624 | 67.23139 | 32802 ft | 464 kts | 123° |
| 2026-05-08 11:05 | 16.68084 | 67.28766 | 32796 ft | 464 kts | 123° |
| 2026-05-08 11:05 | 16.64540 | 67.34396 | 32791 ft | 463 kts | 123° |
| 2026-05-08 11:06 | 16.61014 | 67.39990 | 32785 ft | 463 kts | 123° |
| 2026-05-08 11:06 | 16.57464 | 67.45621 | 32781 ft | 463 kts | 123° |
| 2026-05-08 11:07 | 16.53930 | 67.51219 | 32780 ft | 463 kts | 123° |
| 2026-05-08 11:07 | 16.50372 | 67.56853 | 32780 ft | 463 kts | 123° |
| 2026-05-08 11:08 | 16.46847 | 67.62431 | 32780 ft | 463 kts | 123° |
| 2026-05-08 11:08 | 16.43303 | 67.68045 | 32780 ft | 463 kts | 123° |
| 2026-05-08 11:09 | 16.39755 | 67.73678 | 32780 ft | 463 kts | 123° |
| 2026-05-08 11:09 | 16.36207 | 67.79286 | 32780 ft | 463 kts | 123° |
| 2026-05-08 11:10 | 16.32660 | 67.84884 | 32780 ft | 463 kts | 123° |
| 2026-05-08 11:10 | 16.29113 | 67.90472 | 32780 ft | 463 kts | 123° |
| 2026-05-08 11:11 | 16.25580 | 67.96044 | 32780 ft | 463 kts | 123° |
| 2026-05-08 11:11 | 16.22076 | 68.01614 | 32779 ft | 463 kts | 123° |
| 2026-05-08 11:12 | 16.18545 | 68.07232 | 32775 ft | 463 kts | 123° |
| 2026-05-08 11:12 | 16.15035 | 68.12807 | 32768 ft | 463 kts | 123° |
| 2026-05-08 11:13 | 16.11483 | 68.18444 | 32761 ft | 463 kts | 123° |
| 2026-05-08 11:13 | 16.07963 | 68.24026 | 32757 ft | 463 kts | 123° |
| 2026-05-08 11:14 | 16.04435 | 68.29615 | 32754 ft | 463 kts | 123° |
| 2026-05-08 11:14 | 16.00891 | 68.35226 | 32754 ft | 463 kts | 123° |
| 2026-05-08 11:15 | 15.97344 | 68.40840 | 32754 ft | 463 kts | 123° |
| 2026-05-08 11:15 | 15.93811 | 68.46425 | 32754 ft | 463 kts | 123° |
| 2026-05-08 11:16 | 15.90265 | 68.52025 | 32755 ft | 462 kts | 123° |
| 2026-05-08 11:16 | 15.86732 | 68.57564 | 32754 ft | 462 kts | 123° |
| 2026-05-08 11:17 | 15.83158 | 68.63165 | 32754 ft | 462 kts | 123° |
| 2026-05-08 11:17 | 15.79622 | 68.68741 | 32754 ft | 462 kts | 123° |
| 2026-05-08 11:18 | 15.76113 | 68.74290 | 32754 ft | 462 kts | 123° |
| 2026-05-08 11:18 | 15.72573 | 68.79871 | 32754 ft | 462 kts | 123° |
| 2026-05-08 11:19 | 15.69040 | 68.85431 | 32754 ft | 462 kts | 123° |
| 2026-05-08 11:19 | 15.65479 | 68.91028 | 32754 ft | 462 kts | 123° |
| 2026-05-08 11:20 | 15.61931 | 68.96599 | 32756 ft | 462 kts | 123° |
| 2026-05-08 11:20 | 15.58390 | 69.02155 | 32761 ft | 462 kts | 123° |
| 2026-05-08 11:21 | 15.54851 | 69.07703 | 32766 ft | 462 kts | 123° |
| 2026-05-08 11:21 | 15.51297 | 69.13273 | 32772 ft | 462 kts | 124° |
| 2026-05-08 11:22 | 15.47761 | 69.18808 | 32776 ft | 462 kts | 124° |
| 2026-05-08 11:22 | 15.44223 | 69.24345 | 32778 ft | 462 kts | 124° |
| 2026-05-08 11:23 | 15.40671 | 69.29897 | 32778 ft | 461 kts | 124° |
| 2026-05-08 11:23 | 15.37112 | 69.35458 | 32778 ft | 461 kts | 124° |
| 2026-05-08 11:24 | 15.33559 | 69.41005 | 32778 ft | 461 kts | 124° |
| 2026-05-08 11:24 | 15.30020 | 69.46526 | 32779 ft | 461 kts | 124° |
| 2026-05-08 11:25 | 15.26459 | 69.52078 | 32779 ft | 461 kts | 124° |
| 2026-05-08 11:25 | 15.22891 | 69.57639 | 32779 ft | 461 kts | 124° |
| 2026-05-08 11:26 | 15.19348 | 69.63157 | 32779 ft | 461 kts | 124° |
| 2026-05-08 11:26 | 15.15788 | 69.68713 | 32779 ft | 461 kts | 124° |
| 2026-05-08 11:27 | 15.12243 | 69.74243 | 32778 ft | 461 kts | 124° |
| 2026-05-08 11:27 | 15.08725 | 69.79767 | 32778 ft | 461 kts | 123° |
| 2026-05-08 11:28 | 15.05212 | 69.85314 | 32778 ft | 461 kts | 123° |
| 2026-05-08 11:28 | 15.01678 | 69.90884 | 32779 ft | 460 kts | 123° |
| 2026-05-08 11:29 | 14.98165 | 69.96416 | 32779 ft | 460 kts | 123° |
| 2026-05-08 11:29 | 14.94635 | 70.01969 | 32779 ft | 460 kts | 123° |
| 2026-05-08 11:30 | 14.91123 | 70.07488 | 32779 ft | 460 kts | 123° |
| 2026-05-08 11:30 | 14.87602 | 70.12997 | 32779 ft | 460 kts | 124° |
| 2026-05-08 11:31 | 14.84055 | 70.18522 | 32778 ft | 460 kts | 124° |
| 2026-05-08 11:31 | 14.80512 | 70.24061 | 32778 ft | 460 kts | 123° |
| 2026-05-08 11:32 | 14.77005 | 70.29553 | 32778 ft | 460 kts | 123° |
| 2026-05-08 11:32 | 14.73484 | 70.35067 | 32778 ft | 459 kts | 123° |
| 2026-05-08 11:33 | 14.69950 | 70.40598 | 32778 ft | 459 kts | 123° |
| 2026-05-08 11:33 | 14.66421 | 70.46120 | 32778 ft | 459 kts | 123° |
| 2026-05-08 11:34 | 14.62886 | 70.51645 | 32778 ft | 459 kts | 123° |
| 2026-05-08 11:34 | 14.59357 | 70.57159 | 32778 ft | 459 kts | 123° |
| 2026-05-08 11:35 | 14.55835 | 70.62658 | 32778 ft | 459 kts | 123° |
| 2026-05-08 11:35 | 14.52318 | 70.68157 | 32778 ft | 459 kts | 124° |
| 2026-05-08 11:36 | 14.48803 | 70.73664 | 32778 ft | 459 kts | 124° |
| 2026-05-08 11:36 | 14.45278 | 70.79167 | 32778 ft | 459 kts | 124° |
| 2026-05-08 11:37 | 14.41757 | 70.84651 | 32778 ft | 459 kts | 124° |
| 2026-05-08 11:37 | 14.38211 | 70.90170 | 32778 ft | 459 kts | 124° |
| 2026-05-08 11:38 | 14.34693 | 70.95644 | 32777 ft | 459 kts | 124° |
| 2026-05-08 11:38 | 14.31176 | 71.01199 | 32773 ft | 459 kts | 123° |
| 2026-05-08 11:39 | 14.27680 | 71.06738 | 32768 ft | 459 kts | 123° |
| 2026-05-08 11:39 | 14.24195 | 71.12255 | 32762 ft | 459 kts | 123° |
| 2026-05-08 11:40 | 14.20685 | 71.17804 | 32757 ft | 459 kts | 123° |
| 2026-05-08 11:40 | 14.17196 | 71.23317 | 32754 ft | 459 kts | 123° |
| 2026-05-08 11:41 | 14.13684 | 71.28861 | 32754 ft | 459 kts | 123° |
| 2026-05-08 11:41 | 14.10173 | 71.34399 | 32754 ft | 459 kts | 123° |
| 2026-05-08 11:42 | 14.06659 | 71.39939 | 32754 ft | 459 kts | 123° |
| 2026-05-08 11:42 | 14.03162 | 71.45449 | 32754 ft | 459 kts | 123° |
| 2026-05-08 11:43 | 13.99673 | 71.50943 | 32754 ft | 459 kts | 123° |
| 2026-05-08 11:43 | 13.96157 | 71.56474 | 32754 ft | 458 kts | 123° |
| 2026-05-08 11:44 | 13.92646 | 71.61996 | 32754 ft | 458 kts | 123° |
| 2026-05-08 11:44 | 13.89160 | 71.67480 | 32754 ft | 459 kts | 123° |
| 2026-05-08 11:45 | 13.85638 | 71.72993 | 32754 ft | 459 kts | 124° |
| 2026-05-08 11:45 | 13.82133 | 71.78483 | 32754 ft | 459 kts | 123° |
| 2026-05-08 11:46 | 13.78618 | 71.83996 | 32751 ft | 459 kts | 123° |
| 2026-05-08 11:46 | 13.75096 | 71.89523 | 32746 ft | 459 kts | 123° |
| 2026-05-08 11:47 | 13.71582 | 71.95031 | 32740 ft | 459 kts | 123° |
| 2026-05-08 11:47 | 13.67987 | 72.00441 | 32734 ft | 458 kts | 127° |
| 2026-05-08 11:48 | 13.63989 | 72.05583 | 32729 ft | 458 kts | 129° |
| 2026-05-08 11:48 | 13.59983 | 72.10638 | 32726 ft | 458 kts | 129° |
| 2026-05-08 11:49 | 13.55947 | 72.15737 | 32725 ft | 458 kts | 129° |
| 2026-05-08 11:49 | 13.51933 | 72.20812 | 32725 ft | 458 kts | 129° |
| 2026-05-08 11:50 | 13.47875 | 72.25938 | 32725 ft | 458 kts | 129° |
| 2026-05-08 11:50 | 13.43818 | 72.31061 | 32725 ft | 458 kts | 129° |
| 2026-05-08 11:51 | 13.39796 | 72.36135 | 32725 ft | 458 kts | 129° |
| 2026-05-08 11:51 | 13.35759 | 72.41229 | 32725 ft | 458 kts | 129° |
| 2026-05-08 11:52 | 13.31739 | 72.46297 | 32725 ft | 457 kts | 129° |
| 2026-05-08 11:52 | 13.27702 | 72.51383 | 32725 ft | 457 kts | 129° |
| 2026-05-08 11:53 | 13.23684 | 72.56443 | 32726 ft | 457 kts | 129° |
| 2026-05-08 11:53 | 13.19661 | 72.61506 | 32731 ft | 457 kts | 129° |
| 2026-05-08 11:54 | 13.15618 | 72.66595 | 32736 ft | 457 kts | 129° |
| 2026-05-08 11:54 | 13.11593 | 72.71684 | 32743 ft | 457 kts | 129° |
| 2026-05-08 11:55 | 13.07568 | 72.76756 | 32748 ft | 457 kts | 129° |
| 2026-05-08 11:55 | 13.03561 | 72.81795 | 32751 ft | 456 kts | 129° |
| 2026-05-08 11:56 | 12.99530 | 72.86854 | 32752 ft | 456 kts | 129° |
| 2026-05-08 11:56 | 12.95534 | 72.91866 | 32752 ft | 456 kts | 129° |
| 2026-05-08 11:57 | 12.91521 | 72.96896 | 32752 ft | 456 kts | 129° |
| 2026-05-08 11:57 | 12.87471 | 73.01953 | 32751 ft | 456 kts | 129° |
| 2026-05-08 11:58 | 12.83447 | 73.06958 | 32748 ft | 456 kts | 129° |
| 2026-05-08 11:58 | 12.79415 | 73.11987 | 32743 ft | 455 kts | 129° |
| 2026-05-08 11:59 | 12.73368 | 73.19543 | 32734 ft | 455 kts | 129° |
| 2026-05-08 11:59 | 12.69362 | 73.24548 | 32729 ft | 455 kts | 129° |
| 2026-05-08 12:00 | 12.65332 | 73.29581 | 32726 ft | 455 kts | 129° |
| 2026-05-08 12:00 | 12.61306 | 73.34606 | 32725 ft | 455 kts | 129° |
| 2026-05-08 12:01 | 12.57290 | 73.39616 | 32725 ft | 455 kts | 129° |
| 2026-05-08 12:01 | 12.53290 | 73.44604 | 32725 ft | 454 kts | 129° |
| 2026-05-08 12:02 | 12.49273 | 73.49609 | 32725 ft | 454 kts | 129° |
| 2026-05-08 12:02 | 12.45268 | 73.54598 | 32725 ft | 454 kts | 129° |
| 2026-05-08 12:03 | 12.41241 | 73.59611 | 32725 ft | 454 kts | 129° |
| 2026-05-08 12:03 | 12.37229 | 73.64603 | 32725 ft | 454 kts | 129° |
| 2026-05-08 12:04 | 12.33241 | 73.69585 | 32725 ft | 453 kts | 129° |
| 2026-05-08 12:04 | 12.29231 | 73.74592 | 32725 ft | 453 kts | 129° |
| 2026-05-08 12:05 | 12.25233 | 73.79565 | 32725 ft | 453 kts | 129° |